createdAt,value
2018-08-30T11:23:41.817Z,20416.00
2018-08-30T11:24:41.777Z,19616.00
2018-08-30T11:25:41.753Z,17056.00
2018-08-30T11:26:41.736Z,14200.00
2018-08-30T11:27:41.722Z,12388.00
2018-08-30T11:28:41.708Z,9900.00
2018-08-30T11:29:41.705Z,8824.00
2018-08-30T11:30:41.677Z,7836.00
2018-08-30T11:31:41.666Z,7616.00
2018-08-30T11:32:41.650Z,7728.00
2018-08-30T11:33:41.638Z,8040.00
2018-08-30T11:34:41.635Z,8644.00
2018-08-30T11:35:41.608Z,10316.00
2018-08-30T11:36:41.594Z,12736.00
2018-08-30T11:37:41.624Z,14716.00
2018-08-30T11:38:41.568Z,15500.00
2018-08-30T11:39:41.556Z,15220.00
2018-08-30T11:40:41.554Z,14036.00
2018-08-30T11:41:41.552Z,13916.00
2018-08-30T11:42:41.512Z,14060.00
2018-08-30T11:43:41.503Z,15460.00
2018-08-30T11:44:41.484Z,16264.00
2018-08-30T11:45:41.472Z,16988.00
2018-08-30T11:46:41.470Z,17568.00
2018-08-30T11:47:41.447Z,15764.00
2018-08-30T11:48:41.432Z,17920.00
2018-08-30T11:49:41.419Z,17760.00
2018-08-30T11:50:41.407Z,17888.00
2018-08-30T11:51:41.409Z,17200.00
2018-08-30T11:52:41.408Z,17760.00
2018-08-30T11:53:41.367Z,17952.00
2018-08-30T11:54:41.354Z,16884.00
2018-08-30T11:55:41.342Z,19104.00
2018-08-30T11:56:41.330Z,18880.00
2018-08-30T11:57:41.335Z,18080.00
2018-08-30T11:58:41.306Z,17216.00
2018-08-30T11:59:41.296Z,15524.00
2018-08-30T12:00:41.292Z,14036.00
2018-08-30T12:01:41.267Z,14596.00
2018-08-30T12:02:41.254Z,14760.00
2018-08-30T12:03:41.282Z,14536.00
2018-08-30T12:04:41.230Z,15652.00
2018-08-30T12:05:41.218Z,14792.00
2018-08-30T12:06:41.207Z,14924.00
2018-08-30T12:07:41.195Z,16640.00
2018-08-30T12:08:41.182Z,14820.00
2018-08-30T12:09:41.178Z,14156.00
2018-08-30T12:10:41.208Z,13940.00
2018-08-30T12:11:41.190Z,13520.00
2018-08-30T12:12:41.132Z,12052.00
2018-08-30T12:13:41.143Z,14712.00
2018-08-30T12:14:41.134Z,16280.00
2018-08-30T12:15:41.101Z,16148.00
2018-08-30T12:16:41.089Z,16760.00
2018-08-30T12:17:41.076Z,18048.00
2018-08-30T12:18:41.117Z,18816.00
2018-08-30T12:19:41.043Z,19072.00
2018-08-30T12:20:41.118Z,19360.00
2018-08-30T12:21:41.026Z,19392.00
2018-08-30T12:22:41.009Z,19904.00
2018-08-30T12:23:40.998Z,20576.00
2018-08-30T12:24:40.982Z,22112.00
2018-08-30T12:25:40.971Z,20768.00
2018-08-30T12:26:40.967Z,18752.00
2018-08-30T12:27:40.945Z,17344.00
2018-08-30T12:28:41.000Z,17024.00
2018-08-30T12:29:40.933Z,18016.00
2018-08-30T12:30:40.946Z,21952.00
2018-08-30T12:31:41.005Z,16280.00
2018-08-30T12:32:40.944Z,14724.00
2018-08-30T12:33:40.938Z,12768.00
2018-08-30T12:34:40.932Z,10356.00
2018-08-30T12:35:40.981Z,9356.00
2018-08-30T12:36:40.922Z,9592.00
2018-08-30T12:37:40.942Z,10244.00
2018-08-30T12:38:40.893Z,10124.00
2018-08-30T12:39:40.889Z,9892.00
2018-08-30T12:40:40.837Z,10832.00
2018-08-30T12:41:40.861Z,12256.00
2018-08-30T12:42:40.801Z,16880.00
2018-08-30T12:43:40.861Z,38176.00
2018-08-30T12:44:41.913Z,44192.00
2018-08-30T12:45:40.732Z,36576.00
2018-08-30T12:46:40.716Z,35936.00
2018-08-30T12:47:40.753Z,47360.00
2018-08-30T12:48:40.781Z,69024.00
2018-08-30T12:49:40.805Z,62976.00
2018-08-30T12:50:40.781Z,22688.00
2018-08-30T12:51:40.914Z,31840.00
2018-08-30T12:52:40.759Z,56832.00
2018-08-30T12:53:40.714Z,18944.00
2018-08-30T12:54:40.658Z,68416.00
2018-08-30T12:55:40.717Z,72256.00
2018-08-30T12:56:40.680Z,68384.00
2018-08-30T12:57:40.771Z,66368.00
2018-08-30T12:58:40.684Z,63008.00
2018-08-30T12:59:40.766Z,65344.00
2018-08-30T13:00:40.566Z,65952.00
2018-08-30T13:01:40.774Z,73760.00
2018-08-30T13:02:40.662Z,23424.00
2018-08-30T13:03:40.638Z,62656.00
2018-08-30T13:04:40.733Z,18176.00
2018-08-30T13:05:40.732Z,69280.00
2018-08-30T13:06:40.653Z,57920.00
2018-08-30T13:07:40.667Z,66016.00
2018-08-30T13:08:40.716Z,60576.00
2018-08-30T13:09:40.489Z,65344.00
2018-08-30T13:10:40.704Z,71104.00
2018-08-30T13:11:40.750Z,75488.00
2018-08-30T13:12:40.773Z,77856.00
2018-08-30T13:13:40.554Z,76736.00
2018-08-30T13:14:40.612Z,75104.00
2018-08-30T13:15:40.521Z,73504.00
2018-08-30T13:16:40.614Z,67456.00
2018-08-30T13:17:40.629Z,65184.00
2018-08-30T13:18:40.584Z,66016.00
2018-08-30T13:19:40.710Z,58368.00
2018-08-30T13:20:40.539Z,52352.00
2018-08-30T13:21:40.772Z,36768.00
2018-08-30T13:22:40.598Z,57504.00
2018-08-30T13:23:40.616Z,52544.00
2018-08-30T13:24:40.714Z,44928.00
2018-08-30T13:25:40.561Z,40224.00
2018-08-30T13:26:40.620Z,40224.00
2018-08-30T13:27:40.618Z,40320.00
2018-08-30T13:28:40.478Z,39520.00
2018-08-30T13:29:40.569Z,37152.00
2018-08-30T13:30:40.708Z,37472.00
2018-08-30T13:31:40.630Z,38208.00
2018-08-30T13:32:40.625Z,40096.00
2018-08-30T13:33:40.461Z,43424.00
2018-08-30T13:34:40.642Z,49952.00
2018-08-30T13:35:40.452Z,52736.00
2018-08-30T13:36:40.495Z,49024.00
2018-08-30T13:37:40.705Z,44608.00
2018-08-30T13:38:40.423Z,43680.00
2018-08-30T13:39:40.552Z,45184.00
2018-08-30T13:40:40.585Z,46656.00
2018-08-30T13:41:40.558Z,47424.00
2018-08-30T13:42:40.384Z,47456.00
2018-08-30T13:43:40.581Z,16660.00
2018-08-30T13:44:40.734Z,15852.00
2018-08-30T13:45:40.317Z,44352.00
2018-08-30T13:46:40.727Z,45888.00
2018-08-30T13:47:40.374Z,46816.00
2018-08-30T13:48:40.400Z,45920.00
2018-08-30T13:49:40.377Z,45056.00
2018-08-30T13:50:40.545Z,41920.00
2018-08-30T13:51:40.556Z,45216.00
2018-08-30T13:52:40.522Z,45344.00
2018-08-30T13:53:40.257Z,45568.00
2018-08-30T13:54:40.408Z,45856.00
2018-08-30T13:55:40.373Z,46592.00
2018-08-30T13:56:40.520Z,46656.00
2018-08-30T13:57:40.697Z,47712.00
2018-08-30T13:58:40.799Z,47744.00
2018-08-30T13:59:40.537Z,48800.00
2018-08-30T14:00:40.598Z,48960.00
2018-08-30T14:01:40.319Z,48256.00
2018-08-30T14:02:40.403Z,46176.00
2018-08-30T14:03:40.260Z,24352.00
2018-08-30T14:04:40.321Z,46496.00
2018-08-30T14:05:40.376Z,22048.00
2018-08-30T14:06:40.355Z,42784.00
2018-08-30T14:07:40.170Z,28896.00
2018-08-30T14:08:40.126Z,45024.00
2018-08-30T14:09:40.301Z,47648.00
2018-08-30T14:10:40.222Z,48736.00
2018-08-30T14:11:40.136Z,20384.00
2018-08-30T14:12:40.374Z,21248.00
2018-08-30T14:13:40.135Z,21664.00
2018-08-30T14:14:40.251Z,42080.00
2018-08-30T14:15:39.818Z,49280.00
2018-08-30T14:16:39.798Z,22624.00
2018-08-30T14:17:39.846Z,40960.00
2018-08-30T14:18:39.781Z,40512.00
2018-08-30T14:19:39.867Z,18624.00
2018-08-30T14:20:39.788Z,18496.00
2018-08-30T14:21:39.753Z,44768.00
2018-08-30T14:22:39.872Z,25376.00
2018-08-30T14:23:39.750Z,21120.00
2018-08-30T14:24:39.724Z,25600.00
2018-08-30T14:25:39.720Z,41632.00
2018-08-30T14:26:39.782Z,51584.00
2018-08-30T14:27:39.699Z,59424.00
2018-08-30T14:28:39.685Z,65216.00
2018-08-30T14:29:39.677Z,63232.00
2018-08-30T14:30:39.685Z,62336.00
2018-08-30T14:31:39.662Z,57760.00
2018-08-30T14:32:39.699Z,19808.00
2018-08-30T14:33:39.668Z,18016.00
2018-08-30T14:34:39.634Z,55328.00
2018-08-30T14:35:39.630Z,15140.00
2018-08-30T14:36:39.694Z,62432.00
2018-08-30T14:37:39.636Z,60288.00
2018-08-30T14:38:39.598Z,60416.00
2018-08-30T14:39:39.591Z,59904.00
2018-08-30T14:40:39.621Z,61440.00
2018-08-30T14:41:39.630Z,57792.00
2018-08-30T14:42:39.564Z,59584.00
2018-08-30T14:43:39.574Z,63072.00
2018-08-30T14:44:39.543Z,60832.00
2018-08-30T14:45:39.571Z,62752.00
2018-08-30T14:46:39.523Z,64928.00
2018-08-30T14:47:39.558Z,60864.00
2018-08-30T14:48:39.516Z,67584.00
2018-08-30T14:49:39.508Z,61152.00
2018-08-30T14:50:39.488Z,58048.00
2018-08-30T14:51:39.483Z,60672.00
2018-08-30T14:52:39.479Z,53152.00
2018-08-30T14:53:39.524Z,59456.00
2018-08-30T14:54:39.511Z,57248.00
2018-08-30T14:55:39.451Z,52736.00
2018-08-30T14:56:39.442Z,55520.00
2018-08-30T14:57:39.432Z,51136.00
2018-08-30T14:58:39.425Z,53376.00
2018-08-30T14:59:39.433Z,53920.00
2018-08-30T15:00:39.427Z,53248.00
2018-08-30T15:01:39.405Z,53184.00
2018-08-30T15:02:39.395Z,57216.00
2018-08-30T15:03:39.391Z,57504.00
2018-08-30T15:04:39.377Z,54304.00
2018-08-30T15:05:39.445Z,57664.00
2018-08-30T15:06:39.394Z,56192.00
2018-08-30T15:07:39.360Z,35872.00
2018-08-30T15:08:39.348Z,58144.00
2018-08-30T15:09:39.334Z,52608.00
2018-08-30T15:10:39.352Z,52096.00
2018-08-30T15:11:39.377Z,55904.00
2018-08-30T15:12:39.392Z,56672.00
2018-08-30T15:13:39.316Z,53280.00
2018-08-30T15:14:39.302Z,57696.00
2018-08-30T15:15:39.297Z,55040.00
2018-08-30T15:16:39.307Z,49824.00
2018-08-30T15:17:39.299Z,52928.00
2018-08-30T15:18:39.278Z,49824.00
2018-08-30T15:19:39.303Z,50720.00
2018-08-30T15:20:39.262Z,13740.00
2018-08-30T15:21:39.254Z,13540.00
2018-08-30T15:22:39.250Z,13104.00
2018-08-30T15:23:39.254Z,12648.00
2018-08-30T15:24:39.232Z,12252.00
2018-08-30T15:25:39.224Z,11108.00
2018-08-30T15:26:39.221Z,10496.00
2018-08-30T15:27:39.208Z,9916.00
2018-08-30T15:28:39.271Z,9716.00
2018-08-30T15:29:39.205Z,9940.00
2018-08-30T15:30:39.191Z,10652.00
2018-08-30T15:31:39.181Z,11304.00
2018-08-30T15:32:39.168Z,12036.00
2018-08-30T15:33:39.161Z,13416.00
2018-08-30T15:34:39.158Z,13888.00
2018-08-30T15:35:39.133Z,19776.00
2018-08-30T15:36:39.122Z,46880.00
2018-08-30T15:37:39.113Z,48448.00
2018-08-30T15:38:39.104Z,49472.00
2018-08-30T15:39:39.099Z,50112.00
2018-08-30T15:40:39.113Z,48800.00
2018-08-30T15:41:39.074Z,46656.00
2018-08-30T15:42:39.062Z,44928.00
2018-08-30T15:43:39.053Z,44576.00
2018-08-30T15:44:39.045Z,44064.00
2018-08-30T15:45:39.030Z,41472.00
2018-08-30T15:46:39.034Z,42048.00
2018-08-30T15:47:39.013Z,35296.00
2018-08-30T15:48:39.029Z,23584.00
2018-08-30T15:49:38.997Z,15488.00
2018-08-30T15:50:38.985Z,14868.00
2018-08-30T15:51:38.988Z,15196.00
2018-08-30T15:52:38.963Z,23712.00
2018-08-30T15:53:38.965Z,35520.00
2018-08-30T15:54:38.945Z,37856.00
2018-08-30T15:55:38.935Z,37568.00
2018-08-30T15:56:38.925Z,37408.00
2018-08-30T15:57:38.930Z,37792.00
2018-08-30T15:58:38.907Z,39456.00
2018-08-30T15:59:38.906Z,38336.00
2018-08-30T16:00:38.887Z,34080.00
2018-08-30T16:01:39.028Z,34272.00
2018-08-30T16:02:38.869Z,23968.00
2018-08-30T16:03:38.877Z,25408.00
2018-08-30T16:04:38.856Z,31200.00
2018-08-30T16:05:38.838Z,26048.00
2018-08-30T16:06:38.948Z,22784.00
2018-08-30T16:07:38.818Z,22624.00
2018-08-30T16:08:38.809Z,21024.00
2018-08-30T16:09:38.815Z,23840.00
2018-08-30T16:10:38.796Z,27552.00
2018-08-30T16:11:38.776Z,29376.00
2018-08-30T16:12:38.769Z,27200.00
2018-08-30T16:13:38.757Z,27488.00
2018-08-30T16:14:38.750Z,28704.00
2018-08-30T16:15:38.784Z,28032.00
2018-08-30T16:16:38.731Z,27520.00
2018-08-30T16:17:38.719Z,28320.00
2018-08-30T16:18:38.805Z,26240.00
2018-08-30T16:19:38.707Z,25696.00
2018-08-30T16:20:38.689Z,26976.00
2018-08-30T16:21:38.691Z,25248.00
2018-08-30T16:22:38.677Z,24224.00
2018-08-30T16:23:38.664Z,24416.00
2018-08-30T16:24:38.746Z,23008.00
2018-08-30T16:25:38.648Z,22528.00
2018-08-30T16:26:38.648Z,22464.00
2018-08-30T16:27:38.626Z,22208.00
2018-08-30T16:28:38.783Z,15424.00
2018-08-30T16:29:38.608Z,17344.00
2018-08-30T16:30:38.674Z,16896.00
2018-08-30T16:31:38.587Z,19104.00
2018-08-30T16:32:38.594Z,17760.00
2018-08-30T16:33:38.569Z,18944.00
2018-08-30T16:34:38.564Z,19744.00
2018-08-30T16:35:38.619Z,18112.00
2018-08-30T16:36:38.564Z,18656.00
2018-08-30T16:37:38.565Z,18688.00
2018-08-30T16:38:38.527Z,16768.00
2018-08-30T16:39:38.523Z,16448.00
2018-08-30T16:40:38.498Z,14176.00
2018-08-30T16:41:38.495Z,13984.00
2018-08-30T16:42:38.480Z,12920.00
2018-08-30T16:43:38.483Z,11564.00
2018-08-30T16:44:38.460Z,10672.00
2018-08-30T16:45:38.447Z,10020.00
2018-08-30T16:46:38.436Z,11320.00
2018-08-30T16:47:38.429Z,12460.00
2018-08-30T16:48:38.437Z,15360.00
2018-08-30T16:49:38.427Z,15296.00
2018-08-30T16:50:38.413Z,14144.00
2018-08-30T16:51:38.385Z,13856.00
2018-08-30T16:52:38.373Z,13152.00
2018-08-30T16:53:38.377Z,12276.00
2018-08-30T16:54:38.369Z,14432.00
2018-08-30T16:55:38.431Z,14816.00
2018-08-30T16:56:38.337Z,14688.00
2018-08-30T16:57:38.336Z,14336.00
2018-08-30T16:58:38.311Z,11776.00
2018-08-30T16:59:38.312Z,11148.00
2018-08-30T17:00:38.310Z,9468.00
2018-08-30T17:01:38.292Z,9500.00
2018-08-30T17:02:38.272Z,8716.00
2018-08-30T17:03:38.298Z,7548.00
2018-08-30T17:04:38.302Z,7184.00
2018-08-30T17:05:38.243Z,7144.00
2018-08-30T17:06:38.390Z,6964.00
2018-08-30T17:07:38.253Z,6824.00
2018-08-30T17:08:38.226Z,6764.00
2018-08-30T17:09:38.193Z,6848.00
2018-08-30T17:10:38.184Z,6780.00
2018-08-30T17:11:38.173Z,6764.00
2018-08-30T17:12:38.164Z,6740.00
2018-08-30T17:13:38.157Z,6664.00
2018-08-30T17:14:38.138Z,6568.00
2018-08-30T17:15:38.124Z,6476.00
2018-08-30T17:16:38.115Z,6404.00
2018-08-30T17:17:38.203Z,6348.00
2018-08-30T17:18:38.102Z,6284.00
2018-08-30T17:19:38.157Z,6200.00
2018-08-30T17:20:38.065Z,6152.00
2018-08-30T17:21:38.054Z,6092.00
2018-08-30T17:22:38.038Z,6200.00
2018-08-30T17:23:38.128Z,6480.00
2018-08-30T17:24:38.027Z,6232.00
2018-08-30T17:25:38.000Z,5812.00
2018-08-30T17:26:38.064Z,5536.00
2018-08-30T17:27:38.038Z,5292.00
2018-08-30T17:28:37.962Z,5192.00
2018-08-30T17:29:37.947Z,5072.00
2018-08-30T17:30:37.951Z,4812.00
2018-08-30T17:31:37.922Z,4636.00
2018-08-30T17:32:37.917Z,4484.00
2018-08-30T17:33:37.896Z,4252.00
2018-08-30T17:34:37.881Z,4048.00
2018-08-30T17:35:37.870Z,3860.00
2018-08-30T17:36:37.865Z,3668.00
2018-08-30T17:37:37.933Z,3484.00
2018-08-30T17:38:37.830Z,3304.00
2018-08-30T17:39:37.817Z,3136.00
2018-08-30T17:40:37.809Z,2980.00
2018-08-30T17:41:37.805Z,2836.00
2018-08-30T17:42:37.775Z,2700.00
2018-08-30T17:43:37.763Z,2572.00
2018-08-30T17:44:37.749Z,2448.00
2018-08-30T17:45:37.737Z,2324.00
2018-08-30T17:46:37.721Z,2216.00
2018-08-30T17:47:37.736Z,2116.00
2018-08-30T17:48:37.693Z,2024.00
2018-08-30T17:49:37.681Z,1944.00
2018-08-30T17:50:37.836Z,1864.00
2018-08-30T17:51:37.652Z,1776.00
2018-08-30T17:52:37.638Z,1692.00
2018-08-30T17:53:37.638Z,1608.00
2018-08-30T17:54:37.611Z,1516.00
2018-08-30T17:55:37.597Z,1424.00
2018-08-30T17:56:37.582Z,1336.00
2018-08-30T17:57:37.568Z,1248.00
2018-08-30T17:58:37.606Z,1168.00
2018-08-30T17:59:37.539Z,1092.00
2018-08-30T18:00:37.608Z,1020.00
2018-08-30T18:01:37.512Z,952.00
2018-08-30T18:02:37.496Z,896.00
2018-08-30T18:03:37.484Z,840.00
2018-08-30T18:04:37.479Z,792.00
2018-08-30T18:05:37.453Z,740.00
2018-08-30T18:06:37.440Z,692.00
2018-08-30T18:07:37.424Z,648.00
2018-08-30T18:08:37.408Z,604.00
2018-08-30T18:09:37.395Z,560.00
2018-08-30T18:10:37.391Z,516.00
2018-08-30T18:11:37.367Z,472.00
2018-08-30T18:12:37.350Z,432.00
2018-08-30T18:13:37.339Z,392.00
2018-08-30T18:14:37.323Z,352.00
2018-08-30T18:15:37.338Z,320.00
2018-08-30T18:16:37.291Z,292.00
2018-08-30T18:17:37.276Z,264.00
2018-08-30T18:18:37.301Z,244.00
2018-08-30T18:19:37.249Z,224.00
2018-08-30T18:20:37.232Z,204.00
2018-08-30T18:21:37.227Z,188.00
2018-08-30T18:22:37.206Z,172.00
2018-08-30T18:23:37.187Z,156.00
2018-08-30T18:24:37.172Z,144.00
2018-08-30T18:25:37.157Z,132.00
2018-08-30T18:26:37.160Z,120.00
2018-08-30T18:27:37.127Z,104.00
2018-08-30T18:28:37.110Z,92.00
2018-08-30T18:29:37.097Z,84.00
2018-08-30T18:30:37.080Z,72.00
2018-08-30T18:31:37.068Z,68.00
2018-08-30T18:32:37.058Z,56.00
2018-08-30T18:33:37.036Z,52.00
2018-08-30T18:34:37.019Z,44.00
2018-08-30T18:35:37.006Z,40.00
2018-08-30T18:36:36.989Z,32.00
2018-08-30T18:37:37.016Z,28.00
2018-08-30T18:38:36.965Z,28.00
2018-08-30T18:39:36.945Z,24.00
2018-08-30T18:40:36.973Z,16.00
2018-08-30T18:41:36.912Z,16.00
2018-08-30T18:42:36.905Z,12.00
2018-08-30T18:43:36.876Z,8.00
2018-08-30T18:44:36.867Z,8.00
2018-08-30T18:45:36.848Z,8.00
2018-08-30T18:46:36.844Z,8.00
2018-08-30T18:47:36.849Z,4.00
2018-08-30T18:48:36.801Z,4.00
2018-08-30T18:49:36.785Z,4.00
2018-08-30T18:50:36.771Z,4.00
2018-08-30T18:51:36.757Z,4.00
2018-08-30T18:52:36.742Z,4.00
2018-08-30T18:53:36.735Z,4.00
2018-08-30T18:54:36.707Z,0.00
2018-08-30T18:55:36.689Z,0.00
2018-08-30T18:56:36.676Z,0.00
2018-08-30T18:57:36.658Z,0.00
2018-08-30T18:58:36.657Z,0.00
2018-08-30T18:59:36.629Z,0.00
2018-08-30T19:00:36.610Z,0.00
2018-08-30T19:01:36.598Z,0.00
2018-08-30T19:02:36.578Z,0.00
2018-08-30T19:03:36.563Z,0.00
2018-08-30T19:04:36.557Z,0.00
2018-08-30T19:05:36.531Z,0.00
2018-08-30T19:06:36.514Z,0.00
2018-08-30T19:07:36.500Z,0.00
2018-08-30T19:08:36.481Z,0.00
2018-08-30T19:09:36.476Z,0.00
2018-08-30T19:10:36.450Z,0.00
2018-08-30T19:11:36.433Z,0.00
2018-08-30T19:12:36.414Z,0.00
2018-08-30T19:13:36.401Z,0.00
2018-08-30T19:14:36.400Z,0.00
2018-08-30T19:15:36.368Z,0.00
2018-08-30T19:16:36.350Z,0.00
2018-08-30T19:17:36.334Z,0.00
2018-08-30T19:18:36.313Z,0.00
2018-08-30T19:19:36.301Z,0.00
2018-08-30T19:20:36.353Z,0.00
2018-08-30T19:21:36.267Z,0.00
2018-08-30T19:22:36.251Z,0.00
2018-08-30T19:23:36.236Z,0.00
2018-08-30T19:24:36.216Z,0.00
2018-08-30T19:25:36.216Z,0.00
2018-08-30T19:26:36.184Z,0.00
2018-08-30T19:27:36.182Z,0.00
2018-08-30T19:28:36.152Z,0.00
2018-08-30T19:29:36.136Z,0.00
2018-08-30T19:30:36.129Z,0.00
2018-08-30T19:31:36.105Z,0.00
2018-08-30T19:32:36.084Z,0.00
2018-08-30T19:33:36.068Z,0.00
2018-08-30T19:34:36.052Z,0.00
2018-08-30T19:35:36.044Z,0.00
2018-08-30T19:36:36.016Z,0.00
2018-08-30T19:37:36.000Z,0.00
2018-08-30T19:38:35.985Z,0.00
2018-08-30T19:39:35.968Z,0.00
2018-08-30T19:40:35.963Z,0.00
2018-08-30T19:41:35.933Z,0.00
2018-08-30T19:42:35.934Z,0.00
2018-08-30T19:43:35.903Z,0.00
2018-08-30T19:44:35.883Z,0.00
2018-08-30T19:45:35.865Z,0.00
2018-08-30T19:46:35.858Z,0.00
2018-08-30T19:47:35.831Z,0.00
2018-08-30T19:48:35.813Z,0.00
2018-08-30T19:49:35.799Z,0.00
2018-08-30T19:50:35.779Z,0.00
2018-08-30T19:51:35.774Z,0.00
2018-08-30T19:52:35.822Z,0.00
2018-08-30T19:53:35.731Z,0.00
2018-08-30T19:54:35.774Z,0.00
2018-08-30T19:55:35.694Z,0.00
2018-08-30T19:56:35.692Z,0.00
2018-08-30T19:57:35.659Z,0.00
2018-08-30T19:58:35.643Z,0.00
2018-08-30T19:59:35.625Z,0.00
2018-08-30T20:00:35.608Z,0.00
2018-08-30T20:01:35.590Z,0.00
2018-08-30T20:02:35.588Z,0.00
2018-08-30T20:03:35.560Z,0.00
2018-08-30T20:04:35.540Z,0.00
2018-08-30T20:05:35.525Z,0.00
2018-08-30T20:06:35.505Z,0.00
2018-08-30T20:07:35.567Z,0.00
2018-08-30T20:08:35.471Z,0.00
2018-08-30T20:09:35.452Z,0.00
2018-08-30T20:10:35.435Z,0.00
2018-08-30T20:11:35.418Z,0.00
2018-08-30T20:12:35.418Z,0.00
2018-08-30T20:13:35.385Z,0.00
2018-08-30T20:14:35.366Z,0.00
2018-08-30T20:15:35.349Z,0.00
2018-08-30T20:16:35.332Z,0.00
2018-08-30T20:17:35.314Z,0.00
2018-08-30T20:18:35.306Z,0.00
2018-08-30T20:19:35.278Z,0.00
2018-08-30T20:20:35.264Z,0.00
2018-08-30T20:21:35.243Z,0.00
2018-08-30T20:22:35.224Z,0.00
2018-08-30T20:23:35.220Z,0.00
2018-08-30T20:24:35.198Z,0.00
2018-08-30T20:25:35.175Z,0.00
2018-08-30T20:26:35.155Z,0.00
2018-08-30T20:27:35.140Z,0.00
2018-08-30T20:28:35.132Z,0.00
2018-08-30T20:29:35.101Z,0.00
2018-08-30T20:30:35.085Z,0.00
2018-08-30T20:31:35.066Z,0.00
2018-08-30T20:32:35.049Z,0.00
2018-08-30T20:33:35.031Z,0.00
2018-08-30T20:34:35.024Z,0.00
2018-08-30T20:35:34.996Z,0.00
2018-08-30T20:36:34.979Z,0.00
2018-08-30T20:37:34.962Z,0.00
2018-08-30T20:38:34.945Z,0.00
2018-08-30T20:39:34.941Z,0.00
2018-08-30T20:40:34.908Z,0.00
2018-08-30T20:41:34.887Z,0.00
2018-08-30T20:42:34.871Z,0.00
2018-08-30T20:43:34.852Z,0.00
2018-08-30T20:44:34.855Z,0.00
2018-08-30T20:45:34.818Z,0.00
2018-08-30T20:46:34.804Z,0.00
2018-08-30T20:47:34.784Z,0.00
2018-08-30T20:48:34.768Z,0.00
2018-08-30T20:49:34.747Z,0.00
2018-08-30T20:50:34.741Z,0.00
2018-08-30T20:51:34.711Z,0.00
2018-08-30T20:52:34.692Z,0.00
2018-08-30T20:53:34.682Z,0.00
2018-08-30T20:54:34.662Z,0.00
2018-08-30T20:55:34.648Z,0.00
2018-08-30T20:56:34.620Z,0.00
2018-08-30T20:57:34.602Z,0.00
2018-08-30T20:58:34.586Z,0.00
2018-08-30T20:59:34.569Z,0.00
2018-08-30T21:00:34.560Z,0.00
2018-08-30T21:01:34.534Z,0.00
2018-08-30T21:02:34.513Z,0.00
2018-08-30T21:03:34.496Z,0.00
2018-08-30T21:04:34.477Z,0.00
2018-08-30T21:05:34.476Z,0.00
2018-08-30T21:06:34.446Z,0.00
2018-08-30T21:07:34.425Z,0.00
2018-08-30T21:08:34.405Z,0.00
2018-08-30T21:09:34.386Z,0.00
2018-08-30T21:10:34.370Z,0.00
2018-08-30T21:11:34.366Z,0.00
2018-08-30T21:12:34.332Z,0.00
2018-08-30T21:13:34.316Z,0.00
2018-08-30T21:14:34.297Z,0.00
2018-08-30T21:15:34.280Z,0.00
2018-08-30T21:16:34.274Z,0.00
2018-08-30T21:17:34.242Z,0.00
2018-08-30T21:18:34.223Z,0.00
2018-08-30T21:19:34.207Z,0.00
2018-08-30T21:20:34.186Z,0.00
2018-08-30T21:21:34.169Z,0.00
2018-08-30T21:22:34.162Z,0.00
2018-08-30T21:23:34.133Z,0.00
2018-08-30T21:24:34.115Z,0.00
2018-08-30T21:25:34.096Z,0.00
2018-08-30T21:26:34.079Z,0.00
2018-08-30T21:27:34.108Z,0.00
2018-08-30T21:28:34.048Z,0.00
2018-08-30T21:29:34.024Z,0.00
2018-08-30T21:30:34.007Z,0.00
2018-08-30T21:31:33.987Z,0.00
2018-08-30T21:32:33.981Z,0.00
2018-08-30T21:33:33.971Z,0.00
2018-08-30T21:34:33.935Z,0.00
2018-08-30T21:35:33.913Z,0.00
2018-08-30T21:36:33.902Z,0.00
2018-08-30T21:37:33.881Z,0.00
2018-08-30T21:38:33.871Z,0.00
2018-08-30T21:39:33.843Z,0.00
2018-08-30T21:40:33.820Z,0.00
2018-08-30T21:41:33.804Z,0.00
2018-08-30T21:42:33.788Z,0.00
2018-08-30T21:43:33.781Z,0.00
2018-08-30T21:44:33.749Z,0.00
2018-08-30T21:45:33.730Z,0.00
2018-08-30T21:46:33.711Z,0.00
2018-08-30T21:47:33.694Z,0.00
2018-08-30T21:48:33.709Z,0.00
2018-08-30T21:49:33.658Z,0.00
2018-08-30T21:50:33.640Z,0.00
2018-08-30T21:51:33.620Z,0.00
2018-08-30T21:52:33.602Z,0.00
2018-08-30T21:53:33.583Z,0.00
2018-08-30T21:54:33.586Z,0.00
2018-08-30T21:55:33.548Z,0.00
2018-08-30T21:56:33.532Z,0.00
2018-08-30T21:57:33.508Z,0.00
2018-08-30T21:58:33.492Z,0.00
2018-08-30T21:59:33.473Z,0.00
2018-08-30T22:00:33.461Z,0.00
2018-08-30T22:01:33.435Z,0.00
2018-08-30T22:02:33.418Z,0.00
2018-08-30T22:03:33.401Z,0.00
2018-08-30T22:04:33.380Z,0.00
2018-08-30T22:05:33.376Z,0.00
2018-08-30T22:06:33.342Z,0.00
2018-08-30T22:07:33.323Z,0.00
2018-08-30T22:08:33.305Z,0.00
2018-08-30T22:09:33.287Z,0.00
2018-08-30T22:10:33.267Z,0.00
2018-08-30T22:11:33.262Z,0.00
2018-08-30T22:12:33.230Z,0.00
2018-08-30T22:13:33.213Z,0.00
2018-08-30T22:14:33.196Z,0.00
2018-08-30T22:15:33.175Z,0.00
2018-08-30T22:16:33.195Z,0.00
2018-08-30T22:17:33.151Z,0.00
2018-08-30T22:18:33.120Z,0.00
2018-08-30T22:19:33.102Z,0.00
2018-08-30T22:20:33.082Z,0.00
2018-08-30T22:21:33.062Z,0.00
2018-08-30T22:22:33.055Z,0.00
2018-08-30T22:23:33.026Z,0.00
2018-08-30T22:24:33.008Z,0.00
2018-08-30T22:25:32.988Z,0.00
2018-08-30T22:26:32.975Z,0.00
2018-08-30T22:27:32.974Z,0.00
2018-08-30T22:28:32.933Z,0.00
2018-08-30T22:29:32.915Z,0.00
2018-08-30T22:30:32.899Z,0.00
2018-08-30T22:31:32.877Z,0.00
2018-08-30T22:32:32.857Z,0.00
2018-08-30T22:33:32.851Z,0.00
2018-08-30T22:34:32.822Z,0.00
2018-08-30T22:35:32.804Z,0.00
2018-08-30T22:36:32.784Z,0.00
2018-08-30T22:37:32.897Z,0.00
2018-08-30T22:38:32.797Z,0.00
2018-08-30T22:39:32.744Z,0.00
2018-08-30T22:40:32.796Z,0.00
2018-08-30T22:41:32.690Z,0.00
2018-08-30T22:42:32.764Z,0.00
2018-08-30T22:43:32.687Z,0.00
2018-08-30T22:44:32.632Z,0.00
2018-08-30T22:45:32.614Z,0.00
2018-08-30T22:46:32.618Z,0.00
2018-08-30T22:47:32.604Z,0.00
2018-08-30T22:48:32.561Z,0.00
2018-08-30T22:49:32.548Z,0.00
2018-08-30T22:50:32.527Z,0.00
2018-08-30T22:51:32.504Z,0.00
2018-08-30T22:52:32.483Z,0.00
2018-08-30T22:53:32.464Z,0.00
2018-08-30T22:54:32.514Z,0.00
2018-08-30T22:55:32.546Z,0.00
2018-08-30T22:56:32.406Z,0.00
2018-08-30T22:57:32.441Z,0.00
2018-08-30T22:58:32.436Z,0.00
2018-08-30T22:59:32.358Z,0.00
2018-08-30T23:00:32.344Z,0.00
2018-08-30T23:01:32.312Z,0.00
2018-08-30T23:02:32.297Z,0.00
2018-08-30T23:03:32.277Z,0.00
2018-08-30T23:04:32.259Z,0.00
2018-08-30T23:05:32.249Z,0.00
2018-08-30T23:06:32.231Z,0.00
2018-08-30T23:07:32.201Z,0.00
2018-08-30T23:08:32.190Z,0.00
2018-08-30T23:09:32.166Z,0.00
2018-08-30T23:10:32.158Z,0.00
2018-08-30T23:11:32.123Z,0.00
2018-08-30T23:12:32.104Z,0.00
2018-08-30T23:13:32.085Z,0.00
2018-08-30T23:14:32.068Z,0.00
2018-08-30T23:15:32.049Z,0.00
2018-08-30T23:16:32.117Z,0.00
2018-08-30T23:17:32.010Z,0.00
2018-08-30T23:18:31.992Z,0.00
2018-08-30T23:19:31.979Z,0.00
2018-08-30T23:20:31.952Z,0.00
2018-08-30T23:21:31.959Z,0.00
2018-08-30T23:22:31.915Z,0.00
2018-08-30T23:23:31.899Z,0.00
2018-08-30T23:24:31.882Z,0.00
2018-08-30T23:25:31.864Z,0.00
2018-08-30T23:26:31.860Z,0.00
2018-08-30T23:27:31.830Z,0.00
2018-08-30T23:28:31.811Z,0.00
2018-08-30T23:29:31.785Z,0.00
2018-08-30T23:30:31.828Z,0.00
2018-08-30T23:31:31.743Z,0.00
2018-08-30T23:32:31.733Z,0.00
2018-08-30T23:33:31.705Z,0.00
2018-08-30T23:34:31.687Z,0.00
2018-08-30T23:35:31.670Z,0.00
2018-08-30T23:36:31.673Z,0.00
2018-08-30T23:37:31.651Z,0.00
2018-08-30T23:38:31.648Z,0.00
2018-08-30T23:39:31.592Z,0.00
2018-08-30T23:40:31.576Z,0.00
2018-08-30T23:41:31.552Z,0.00
2018-08-30T23:42:31.539Z,0.00
2018-08-30T23:43:31.541Z,0.00
2018-08-30T23:44:31.497Z,0.00
2018-08-30T23:45:31.476Z,0.00
2018-08-30T23:46:31.456Z,0.00
2018-08-30T23:47:31.441Z,0.00
2018-08-30T23:48:31.419Z,0.00